createdAt,value
2019-06-26T00:00:18.891Z,0.00
2019-06-26T00:01:18.877Z,0.00
2019-06-26T00:02:18.858Z,0.00
2019-06-26T00:03:18.847Z,0.00
2019-06-26T00:04:18.837Z,0.00
2019-06-26T00:05:18.900Z,0.00
2019-06-26T00:06:18.815Z,0.00
2019-06-26T00:07:18.827Z,0.00
2019-06-26T00:08:18.793Z,0.00
2019-06-26T00:09:18.784Z,0.00
2019-06-26T00:10:18.781Z,0.00
2019-06-26T00:11:18.762Z,0.00
2019-06-26T00:12:18.777Z,0.00
2019-06-26T00:13:26.210Z,0.00
2019-06-26T00:14:19.727Z,0.00
2019-06-26T00:15:18.728Z,0.00
2019-06-26T00:16:18.707Z,0.00
2019-06-26T00:17:18.700Z,0.00
2019-06-26T00:18:18.691Z,0.00
2019-06-26T00:19:18.680Z,0.00
2019-06-26T00:20:18.677Z,0.00
2019-06-26T00:21:21.866Z,0.00
2019-06-26T00:22:18.644Z,0.00
2019-06-26T00:23:18.632Z,0.00
2019-06-26T00:24:18.622Z,0.00
2019-06-26T00:25:18.618Z,0.00
2019-06-26T00:26:18.601Z,0.00
2019-06-26T00:27:18.588Z,0.00
2019-06-26T00:28:18.581Z,0.00
2019-06-26T00:29:18.568Z,0.00
2019-06-26T00:30:18.572Z,0.00
2019-06-26T00:31:18.547Z,0.00
2019-06-26T00:32:18.540Z,0.00
2019-06-26T00:33:18.532Z,0.00
2019-06-26T00:34:18.514Z,0.00
2019-06-26T00:35:18.513Z,0.00
2019-06-26T00:36:18.493Z,0.00
2019-06-26T00:37:18.482Z,0.00
2019-06-26T00:38:18.470Z,0.00
2019-06-26T00:39:18.539Z,0.00
2019-06-26T00:40:18.464Z,0.00
2019-06-26T00:41:18.439Z,0.00
2019-06-26T00:42:18.426Z,0.00
2019-06-26T00:43:18.414Z,0.00
2019-06-26T00:44:18.409Z,0.00
2019-06-26T00:45:18.393Z,0.00
2019-06-26T00:46:18.393Z,0.00
2019-06-26T00:47:18.370Z,0.00
2019-06-26T00:48:18.360Z,0.00
2019-06-26T00:49:18.350Z,0.00
2019-06-26T00:50:18.338Z,0.00
2019-06-26T00:51:18.336Z,0.00
2019-06-26T00:52:18.317Z,0.00
2019-06-26T00:53:18.306Z,0.00
2019-06-26T00:54:18.300Z,0.00
2019-06-26T00:55:18.283Z,0.00
2019-06-26T00:56:18.281Z,0.00
2019-06-26T00:57:18.262Z,0.00
2019-06-26T00:58:18.256Z,0.00
2019-06-26T00:59:18.241Z,0.00
2019-06-26T01:00:18.229Z,0.00
2019-06-26T01:01:18.231Z,0.00
2019-06-26T01:02:18.208Z,0.00
2019-06-26T01:03:18.196Z,0.00
2019-06-26T01:04:18.189Z,0.00
2019-06-26T01:05:18.229Z,0.00
2019-06-26T01:06:18.173Z,0.00
2019-06-26T01:07:18.155Z,0.00
2019-06-26T01:08:18.143Z,0.00
2019-06-26T01:09:18.131Z,0.00
2019-06-26T01:10:18.131Z,0.00
2019-06-26T01:11:21.521Z,0.00
2019-06-26T01:12:18.100Z,0.00
2019-06-26T01:13:18.089Z,0.00
2019-06-26T01:14:18.077Z,0.00
2019-06-26T01:15:18.076Z,0.00
2019-06-26T01:16:18.067Z,0.00
2019-06-26T01:17:18.045Z,0.00
2019-06-26T01:18:18.034Z,0.00
2019-06-26T01:19:18.024Z,0.00
2019-06-26T01:20:18.012Z,0.00
2019-06-26T01:21:18.010Z,0.00
2019-06-26T01:22:17.997Z,0.00
2019-06-26T01:23:17.979Z,0.00
2019-06-26T01:24:17.972Z,0.00
2019-06-26T01:25:17.958Z,0.00
2019-06-26T01:26:17.969Z,0.00
2019-06-26T01:27:17.937Z,0.00
2019-06-26T01:28:17.925Z,0.00
2019-06-26T01:29:17.914Z,0.00
2019-06-26T01:30:17.904Z,0.00
2019-06-26T01:31:17.904Z,0.00
2019-06-26T01:32:17.954Z,0.00
2019-06-26T01:33:17.871Z,0.00
2019-06-26T01:34:17.861Z,0.00
2019-06-26T01:35:17.851Z,0.00
2019-06-26T01:36:17.855Z,0.00
2019-06-26T01:37:17.831Z,0.00
2019-06-26T01:38:17.816Z,0.00
2019-06-26T01:39:17.807Z,0.00
2019-06-26T01:40:17.796Z,0.00
2019-06-26T01:41:17.804Z,0.00
2019-06-26T01:42:17.776Z,0.00
2019-06-26T01:43:17.767Z,0.00
2019-06-26T01:44:17.756Z,0.00
2019-06-26T01:45:17.744Z,0.00
2019-06-26T01:46:17.741Z,0.00
2019-06-26T01:47:17.718Z,0.00
2019-06-26T01:48:17.709Z,0.00
2019-06-26T01:49:17.697Z,0.00
2019-06-26T01:50:17.687Z,0.00
2019-06-26T01:51:17.683Z,0.00
2019-06-26T01:52:17.665Z,0.00
2019-06-26T01:53:17.654Z,0.00
2019-06-26T01:54:17.648Z,0.00
2019-06-26T01:55:17.635Z,0.00
2019-06-26T01:56:17.628Z,0.00
2019-06-26T01:57:17.612Z,0.00
2019-06-26T01:58:17.603Z,0.00
2019-06-26T01:59:17.589Z,0.00
2019-06-26T02:00:17.577Z,0.00
2019-06-26T02:01:17.574Z,0.00
2019-06-26T02:02:17.555Z,0.00
2019-06-26T02:03:17.545Z,0.00
2019-06-26T02:04:17.535Z,0.00
2019-06-26T02:05:17.522Z,0.00
2019-06-26T02:06:17.520Z,0.00
2019-06-26T02:07:17.501Z,0.00
2019-06-26T02:08:17.491Z,0.00
2019-06-26T02:09:17.478Z,0.00
2019-06-26T02:10:17.467Z,0.00
2019-06-26T02:11:17.469Z,0.00
2019-06-26T02:12:17.447Z,0.00
2019-06-26T02:13:17.435Z,0.00
2019-06-26T02:14:30.480Z,0.00
2019-06-26T02:15:18.413Z,0.00
2019-06-26T02:16:17.422Z,0.00
2019-06-26T02:17:17.408Z,0.00
2019-06-26T02:18:17.378Z,0.00
2019-06-26T02:19:17.367Z,0.00
2019-06-26T02:20:17.358Z,0.00
2019-06-26T02:21:17.349Z,0.00
2019-06-26T02:22:17.346Z,0.00
2019-06-26T02:23:17.323Z,0.00
2019-06-26T02:24:17.314Z,0.00
2019-06-26T02:25:17.301Z,0.00
2019-06-26T02:26:17.291Z,0.00
2019-06-26T02:27:17.287Z,0.00
2019-06-26T02:28:17.267Z,0.00
2019-06-26T02:29:17.257Z,0.00
2019-06-26T02:30:17.251Z,0.00
2019-06-26T02:31:17.234Z,0.00
2019-06-26T02:32:17.232Z,0.00
2019-06-26T02:33:17.212Z,0.00
2019-06-26T02:34:17.205Z,0.00
2019-06-26T02:35:17.198Z,0.00
2019-06-26T02:36:17.181Z,0.00
2019-06-26T02:37:17.181Z,0.00
2019-06-26T02:38:17.162Z,0.00
2019-06-26T02:39:17.148Z,0.00
2019-06-26T02:40:17.183Z,0.00
2019-06-26T02:41:17.124Z,0.00
2019-06-26T02:42:17.120Z,0.00
2019-06-26T02:43:17.108Z,0.00
2019-06-26T02:44:17.099Z,0.00
2019-06-26T02:45:17.079Z,0.00
2019-06-26T02:46:17.067Z,0.00
2019-06-26T02:47:20.152Z,0.00
2019-06-26T02:48:17.056Z,0.00
2019-06-26T02:49:17.035Z,0.00
2019-06-26T02:50:17.024Z,0.00
2019-06-26T02:51:17.013Z,0.00
2019-06-26T02:52:17.023Z,0.00
2019-06-26T02:53:16.991Z,0.00
2019-06-26T02:54:16.987Z,0.00
2019-06-26T02:55:16.968Z,0.00
2019-06-26T02:56:16.961Z,0.00
2019-06-26T02:57:16.993Z,0.00
2019-06-26T02:58:16.935Z,0.00
2019-06-26T02:59:16.925Z,0.00
2019-06-26T03:00:16.914Z,0.00
2019-06-26T03:01:16.908Z,0.00
2019-06-26T03:02:16.888Z,0.00
2019-06-26T03:03:16.890Z,0.00
2019-06-26T03:04:16.867Z,0.00
2019-06-26T03:05:16.856Z,0.00
2019-06-26T03:06:16.844Z,0.00
2019-06-26T03:07:16.835Z,0.00
2019-06-26T03:08:16.831Z,0.00
2019-06-26T03:09:16.813Z,0.00
2019-06-26T03:10:16.799Z,0.00
2019-06-26T03:11:16.788Z,0.00
2019-06-26T03:12:16.787Z,0.00
2019-06-26T03:13:16.777Z,0.00
2019-06-26T03:14:16.756Z,0.00
2019-06-26T03:15:16.744Z,0.00
2019-06-26T03:16:16.737Z,0.00
2019-06-26T03:17:16.721Z,0.00
2019-06-26T03:18:16.720Z,0.00
2019-06-26T03:19:16.700Z,0.00
2019-06-26T03:20:16.689Z,0.00
2019-06-26T03:21:16.678Z,0.00
2019-06-26T03:22:16.665Z,0.00
2019-06-26T03:23:16.666Z,0.00
2019-06-26T03:24:16.645Z,0.00
2019-06-26T03:25:16.632Z,0.00
2019-06-26T03:26:16.621Z,0.00
2019-06-26T03:27:16.610Z,0.00
2019-06-26T03:28:16.609Z,0.00
2019-06-26T03:29:16.587Z,0.00
2019-06-26T03:30:16.580Z,0.00
2019-06-26T03:31:16.571Z,0.00
2019-06-26T03:32:16.557Z,0.00
2019-06-26T03:33:16.557Z,0.00
2019-06-26T03:34:16.535Z,5.62
2019-06-26T03:35:16.524Z,5.62
2019-06-26T03:36:16.513Z,5.62
2019-06-26T03:37:16.517Z,5.62
2019-06-26T03:38:16.501Z,5.62
2019-06-26T03:39:16.478Z,5.62
2019-06-26T03:40:16.467Z,5.62
2019-06-26T03:41:16.496Z,5.62
2019-06-26T03:42:16.444Z,5.62
2019-06-26T03:43:16.442Z,5.62
2019-06-26T03:44:16.421Z,5.62
2019-06-26T03:45:25.523Z,5.62
2019-06-26T03:46:17.398Z,5.62
2019-06-26T03:47:16.389Z,5.62
2019-06-26T03:48:16.387Z,5.62
2019-06-26T03:49:16.367Z,5.62
2019-06-26T03:50:16.361Z,5.62
2019-06-26T03:51:16.345Z,11.25
2019-06-26T03:52:16.334Z,11.25
2019-06-26T03:53:16.333Z,11.25
2019-06-26T03:54:16.315Z,11.25
2019-06-26T03:55:16.306Z,11.25
2019-06-26T03:56:16.291Z,11.25
2019-06-26T03:57:16.285Z,11.25
2019-06-26T03:58:16.286Z,11.25
2019-06-26T03:59:16.260Z,11.25
2019-06-26T04:00:16.248Z,11.25
2019-06-26T04:01:16.275Z,11.25
2019-06-26T04:02:16.227Z,11.25
2019-06-26T04:03:16.328Z,16.88
2019-06-26T04:04:16.229Z,16.88
2019-06-26T04:05:16.190Z,16.88
2019-06-26T04:06:16.180Z,16.88
2019-06-26T04:07:16.170Z,16.88
2019-06-26T04:08:16.192Z,16.88
2019-06-26T04:09:16.155Z,16.88
2019-06-26T04:10:16.136Z,16.88
2019-06-26T04:11:16.128Z,16.88
2019-06-26T04:12:16.117Z,16.88
2019-06-26T04:13:16.102Z,16.88
2019-06-26T04:14:16.104Z,16.88
2019-06-26T04:15:16.080Z,22.50
2019-06-26T04:16:16.068Z,22.50
2019-06-26T04:17:16.071Z,22.50
2019-06-26T04:18:16.047Z,22.50
2019-06-26T04:19:16.045Z,22.50
2019-06-26T04:20:16.025Z,22.50
2019-06-26T04:21:16.013Z,22.50
2019-06-26T04:22:16.005Z,22.50
2019-06-26T04:23:15.991Z,22.50
2019-06-26T04:24:15.990Z,28.12
2019-06-26T04:25:15.970Z,28.12
2019-06-26T04:26:16.021Z,28.12
2019-06-26T04:27:15.951Z,28.12
2019-06-26T04:28:15.939Z,28.12
2019-06-26T04:29:15.947Z,28.12
2019-06-26T04:30:15.913Z,28.12
2019-06-26T04:31:15.903Z,28.12
2019-06-26T04:32:15.894Z,33.75
2019-06-26T04:33:15.887Z,33.75
2019-06-26T04:34:15.945Z,33.75
2019-06-26T04:35:15.859Z,33.75
2019-06-26T04:36:15.846Z,33.75
2019-06-26T04:37:15.836Z,33.75
2019-06-26T04:38:15.838Z,33.75
2019-06-26T04:39:15.822Z,33.75
2019-06-26T04:40:15.813Z,33.75
2019-06-26T04:41:15.791Z,33.75
2019-06-26T04:42:15.780Z,39.38
2019-06-26T04:43:15.771Z,39.38
2019-06-26T04:44:15.769Z,39.38
2019-06-26T04:45:15.748Z,39.38
2019-06-26T04:46:15.737Z,39.38
2019-06-26T04:47:15.728Z,39.38
2019-06-26T04:48:15.720Z,39.38
2019-06-26T04:49:15.715Z,39.38
2019-06-26T04:50:15.697Z,39.38
2019-06-26T04:51:15.682Z,39.38
2019-06-26T04:52:15.673Z,45.00
2019-06-26T04:53:15.658Z,45.00
2019-06-26T04:54:15.650Z,45.00
2019-06-26T04:55:15.676Z,45.00
2019-06-26T04:56:15.625Z,45.00
2019-06-26T04:57:15.614Z,45.00
2019-06-26T04:58:15.606Z,45.00
2019-06-26T04:59:15.592Z,45.00
2019-06-26T05:00:15.590Z,45.00
2019-06-26T05:01:15.571Z,45.00
2019-06-26T05:02:15.559Z,50.62
2019-06-26T05:03:15.553Z,50.62
2019-06-26T05:04:15.540Z,50.62
2019-06-26T05:05:15.535Z,50.62
2019-06-26T05:06:15.515Z,50.62
2019-06-26T05:07:15.514Z,50.62
2019-06-26T05:08:15.549Z,50.62
2019-06-26T05:09:15.483Z,50.62
2019-06-26T05:10:15.484Z,56.25
2019-06-26T05:11:15.464Z,56.25
2019-06-26T05:12:15.455Z,56.25
2019-06-26T05:13:15.438Z,56.25
2019-06-26T05:14:15.430Z,56.25
2019-06-26T05:15:15.423Z,56.25
2019-06-26T05:16:19.257Z,61.88
2019-06-26T05:17:15.392Z,61.88
2019-06-26T05:18:15.382Z,61.88
2019-06-26T05:19:15.392Z,61.88
2019-06-26T05:20:15.369Z,61.88
2019-06-26T05:21:15.351Z,61.88
2019-06-26T05:22:15.454Z,61.88
2019-06-26T05:23:15.331Z,67.50
2019-06-26T05:24:15.374Z,67.50
2019-06-26T05:25:15.363Z,67.50
2019-06-26T05:26:15.296Z,67.50
2019-06-26T05:27:15.308Z,73.12
2019-06-26T05:28:15.314Z,73.12
2019-06-26T05:29:15.261Z,67.50
2019-06-26T05:30:15.264Z,73.12
2019-06-26T05:31:15.239Z,78.75
2019-06-26T05:32:15.234Z,78.75
2019-06-26T05:33:15.232Z,78.75
2019-06-26T05:34:15.206Z,84.38
2019-06-26T05:35:15.208Z,84.38
2019-06-26T05:36:15.183Z,84.38
2019-06-26T05:37:15.171Z,90.00
2019-06-26T05:38:15.164Z,90.00
2019-06-26T05:39:15.151Z,90.00
2019-06-26T05:40:15.141Z,90.00
2019-06-26T05:41:15.136Z,90.00
2019-06-26T05:42:15.124Z,90.00
2019-06-26T05:43:15.106Z,95.62
2019-06-26T05:44:15.096Z,95.62
2019-06-26T05:45:15.083Z,95.62
2019-06-26T05:46:30.056Z,95.62
2019-06-26T05:47:16.066Z,101.25
2019-06-26T05:48:17.799Z,101.25
2019-06-26T05:49:15.101Z,101.25
2019-06-26T05:50:15.045Z,101.25
2019-06-26T05:51:15.033Z,101.25
2019-06-26T05:52:16.740Z,101.25
2019-06-26T05:53:14.998Z,106.88
2019-06-26T05:54:15.000Z,106.88
2019-06-26T05:55:14.976Z,106.88
2019-06-26T05:56:14.976Z,106.88
2019-06-26T05:57:14.955Z,106.88
2019-06-26T05:58:14.947Z,112.50
2019-06-26T05:59:14.934Z,112.50
2019-06-26T06:00:14.923Z,112.50
2019-06-26T06:01:14.919Z,112.50
2019-06-26T06:02:14.905Z,112.50
2019-06-26T06:03:14.889Z,118.12
2019-06-26T06:04:14.880Z,118.12
2019-06-26T06:05:14.876Z,118.12
2019-06-26T06:06:14.866Z,123.75
2019-06-26T06:07:14.846Z,123.75
2019-06-26T06:08:14.836Z,123.75
2019-06-26T06:09:14.827Z,123.75
2019-06-26T06:10:14.816Z,123.75
2019-06-26T06:11:14.816Z,123.75
2019-06-26T06:12:14.792Z,129.38
2019-06-26T06:13:14.781Z,129.38
2019-06-26T06:14:14.774Z,129.38
2019-06-26T06:15:14.760Z,129.38
2019-06-26T06:16:14.763Z,135.00
2019-06-26T06:17:14.738Z,135.00
2019-06-26T06:18:14.727Z,135.00
2019-06-26T06:19:14.718Z,135.00
2019-06-26T06:20:14.705Z,140.62
2019-06-26T06:21:14.697Z,140.62
2019-06-26T06:22:14.693Z,140.62
2019-06-26T06:23:14.673Z,146.25
2019-06-26T06:24:14.665Z,146.25
2019-06-26T06:25:14.655Z,146.25
2019-06-26T06:26:14.641Z,146.25
2019-06-26T06:27:14.639Z,151.88
2019-06-26T06:28:14.619Z,151.88
2019-06-26T06:29:14.609Z,151.88
2019-06-26T06:30:14.603Z,157.50
2019-06-26T06:31:14.588Z,157.50
2019-06-26T06:32:14.585Z,157.50
2019-06-26T06:33:14.566Z,163.12
2019-06-26T06:34:14.556Z,163.12
2019-06-26T06:35:14.544Z,168.75
2019-06-26T06:36:14.535Z,168.75
2019-06-26T06:37:14.534Z,168.75
2019-06-26T06:38:14.512Z,174.38
2019-06-26T06:39:14.504Z,174.38
2019-06-26T06:40:14.490Z,180.00
2019-06-26T06:41:14.487Z,185.62
2019-06-26T06:42:14.484Z,191.25
2019-06-26T06:43:14.462Z,196.88
2019-06-26T06:44:14.448Z,202.50
2019-06-26T06:45:14.441Z,219.38
2019-06-26T06:46:14.428Z,292.50
2019-06-26T06:47:14.427Z,427.50
2019-06-26T06:48:14.406Z,556.88
2019-06-26T06:49:14.395Z,607.50
2019-06-26T06:50:14.386Z,618.75
2019-06-26T06:51:14.376Z,613.12
2019-06-26T06:52:16.649Z,624.38
2019-06-26T06:53:14.353Z,708.75
2019-06-26T06:54:14.343Z,703.12
2019-06-26T06:55:14.334Z,708.75
2019-06-26T06:56:14.322Z,708.75
2019-06-26T06:57:14.312Z,630.00
2019-06-26T06:58:14.310Z,618.75
2019-06-26T06:59:14.292Z,691.88
2019-06-26T07:00:14.283Z,669.38
2019-06-26T07:01:14.271Z,573.75
2019-06-26T07:02:14.259Z,483.75
2019-06-26T07:03:14.259Z,365.62
2019-06-26T07:04:14.240Z,590.62
2019-06-26T07:05:14.232Z,742.50
2019-06-26T07:06:14.221Z,720.00
2019-06-26T07:07:14.206Z,585.00
2019-06-26T07:08:14.205Z,241.88
2019-06-26T07:09:14.185Z,202.50
2019-06-26T07:10:14.177Z,208.12
2019-06-26T07:11:14.170Z,253.12
2019-06-26T07:12:14.154Z,230.62
2019-06-26T07:13:14.154Z,180.00
2019-06-26T07:14:14.147Z,174.38
2019-06-26T07:15:14.122Z,174.38
2019-06-26T07:16:14.121Z,180.00
2019-06-26T07:17:20.581Z,174.38
2019-06-26T07:18:15.098Z,174.38
2019-06-26T07:19:14.080Z,174.38
2019-06-26T07:20:14.070Z,174.38
2019-06-26T07:21:14.059Z,174.38
2019-06-26T07:22:14.054Z,180.00
2019-06-26T07:23:14.047Z,196.88
2019-06-26T07:24:14.030Z,191.25
2019-06-26T07:25:14.021Z,191.25
2019-06-26T07:26:14.009Z,213.75
2019-06-26T07:27:13.996Z,225.00
2019-06-26T07:28:14.082Z,230.62
2019-06-26T07:29:13.976Z,225.00
2019-06-26T07:30:13.965Z,202.50
2019-06-26T07:31:13.957Z,427.50
2019-06-26T07:32:13.944Z,258.75
2019-06-26T07:33:13.959Z,472.50
2019-06-26T07:34:13.923Z,624.38
2019-06-26T07:35:13.921Z,973.12
2019-06-26T07:36:13.916Z,793.12
2019-06-26T07:37:13.898Z,1012.50
2019-06-26T07:38:13.892Z,1006.88
2019-06-26T07:39:13.874Z,1018.12
2019-06-26T07:40:13.862Z,956.25
2019-06-26T07:41:13.857Z,877.50
2019-06-26T07:42:13.842Z,618.75
2019-06-26T07:43:16.426Z,331.88
2019-06-26T07:44:13.818Z,275.62
2019-06-26T07:45:13.810Z,331.88
2019-06-26T07:46:13.798Z,489.38
2019-06-26T07:47:22.970Z,534.38
2019-06-26T07:48:14.791Z,264.38
2019-06-26T07:49:13.767Z,236.25
2019-06-26T07:50:13.760Z,275.62
2019-06-26T07:51:13.745Z,348.75
2019-06-26T07:52:13.735Z,630.00
2019-06-26T07:53:13.726Z,540.00
2019-06-26T07:54:13.730Z,399.38
2019-06-26T07:55:13.710Z,230.62
2019-06-26T07:56:13.698Z,208.12
2019-06-26T07:57:13.686Z,275.62
2019-06-26T07:58:13.673Z,281.25
2019-06-26T07:59:13.680Z,230.62
2019-06-26T08:00:13.653Z,241.88
2019-06-26T08:01:13.647Z,348.75
2019-06-26T08:02:13.636Z,376.88
2019-06-26T08:03:13.624Z,258.75
2019-06-26T08:04:13.622Z,230.62
2019-06-26T08:05:13.607Z,225.00
2019-06-26T08:06:13.592Z,258.75
2019-06-26T08:07:13.581Z,253.12
2019-06-26T08:08:14.877Z,213.75
2019-06-26T08:09:13.567Z,213.75
2019-06-26T08:10:13.551Z,225.00
2019-06-26T08:11:13.539Z,264.38
2019-06-26T08:12:13.527Z,433.12
2019-06-26T08:13:13.528Z,669.38
2019-06-26T08:14:13.524Z,579.38
2019-06-26T08:15:13.596Z,281.25
2019-06-26T08:16:13.550Z,247.50
2019-06-26T08:17:13.564Z,241.88
2019-06-26T08:18:13.475Z,236.25
2019-06-26T08:19:13.502Z,230.62
2019-06-26T08:20:13.459Z,236.25
2019-06-26T08:21:13.454Z,230.62
2019-06-26T08:22:13.516Z,225.00
2019-06-26T08:23:13.458Z,275.62
2019-06-26T08:24:13.421Z,292.50
2019-06-26T08:25:13.404Z,410.62
2019-06-26T08:26:13.383Z,624.38
2019-06-26T08:27:13.402Z,781.88
2019-06-26T08:28:13.434Z,1130.62
2019-06-26T08:29:13.468Z,1091.25
2019-06-26T08:30:13.582Z,697.50
2019-06-26T08:31:13.379Z,585.00
2019-06-26T08:32:13.320Z,421.88
2019-06-26T08:33:13.316Z,331.88
2019-06-26T08:34:13.308Z,545.62
2019-06-26T08:35:13.347Z,675.00
2019-06-26T08:36:13.280Z,826.88
2019-06-26T08:37:13.344Z,810.00
2019-06-26T08:38:15.599Z,540.00
2019-06-26T08:39:13.316Z,635.62
2019-06-26T08:40:13.399Z,573.75
2019-06-26T08:41:13.231Z,511.88
2019-06-26T08:42:13.219Z,810.00
2019-06-26T08:43:13.223Z,725.62
2019-06-26T08:44:13.200Z,843.75
2019-06-26T08:45:13.198Z,888.75
2019-06-26T08:46:13.174Z,888.75
2019-06-26T08:47:13.168Z,573.75
2019-06-26T08:48:19.358Z,708.75
2019-06-26T08:49:25.074Z,1029.38
2019-06-26T08:50:14.150Z,860.62
2019-06-26T08:51:13.124Z,663.75
2019-06-26T08:52:13.119Z,928.12
2019-06-26T08:53:13.110Z,658.12
2019-06-26T08:54:13.100Z,1203.75
2019-06-26T08:55:13.093Z,1378.12
2019-06-26T08:56:13.076Z,1417.50
2019-06-26T08:57:13.064Z,1136.25
2019-06-26T08:58:13.052Z,1310.62
2019-06-26T08:59:13.043Z,1327.50
2019-06-26T09:00:13.046Z,1350.00
2019-06-26T09:01:13.031Z,1428.75
2019-06-26T09:02:13.021Z,1434.38
2019-06-26T09:03:13.002Z,1434.38
2019-06-26T09:04:12.995Z,1468.12
2019-06-26T09:05:12.993Z,1462.50
2019-06-26T09:06:12.973Z,1411.88
2019-06-26T09:07:12.963Z,1305.00
2019-06-26T09:08:13.052Z,1299.38
2019-06-26T09:09:12.947Z,1423.12
2019-06-26T09:10:12.944Z,1507.50
2019-06-26T09:11:12.925Z,1541.25
2019-06-26T09:12:12.915Z,1552.50
2019-06-26T09:13:12.906Z,1485.00
2019-06-26T09:14:12.896Z,1496.25
2019-06-26T09:15:12.904Z,1552.50
2019-06-26T09:16:12.886Z,1558.12
2019-06-26T09:17:12.869Z,1530.00
2019-06-26T09:18:12.895Z,1524.38
2019-06-26T09:19:12.854Z,1473.75
2019-06-26T09:20:12.947Z,1389.38
2019-06-26T09:21:12.889Z,1440.00
2019-06-26T09:22:12.821Z,1513.12
2019-06-26T09:23:12.811Z,1451.25
2019-06-26T09:24:12.801Z,1361.25
2019-06-26T09:25:21.756Z,1383.75
2019-06-26T09:26:13.783Z,1406.25
2019-06-26T09:27:14.988Z,1434.38
2019-06-26T09:28:12.783Z,1546.88
2019-06-26T09:29:12.775Z,1603.12
2019-06-26T09:30:12.898Z,1524.38
2019-06-26T09:31:12.737Z,1507.50
2019-06-26T09:32:12.742Z,1305.00
2019-06-26T09:33:12.721Z,793.12
2019-06-26T09:34:12.720Z,433.12
2019-06-26T09:35:12.715Z,405.00
2019-06-26T09:36:12.703Z,393.75
2019-06-26T09:37:12.686Z,393.75
2019-06-26T09:38:12.825Z,393.75
2019-06-26T09:39:12.665Z,399.38
2019-06-26T09:40:12.658Z,427.50
2019-06-26T09:41:12.654Z,838.12
2019-06-26T09:42:12.640Z,1445.62
2019-06-26T09:43:12.628Z,1608.75
2019-06-26T09:44:12.621Z,1591.88
2019-06-26T09:45:12.626Z,1704.38
2019-06-26T09:46:12.609Z,1749.38
2019-06-26T09:47:15.605Z,1760.62
2019-06-26T09:48:12.583Z,1766.25
2019-06-26T09:49:12.611Z,1777.50
2019-06-26T09:50:12.564Z,1766.25
2019-06-26T09:51:12.565Z,1726.88
2019-06-26T09:52:12.605Z,1732.50
2019-06-26T09:53:12.625Z,1805.62
2019-06-26T09:54:12.536Z,1800.00
2019-06-26T09:55:12.521Z,1822.50
2019-06-26T09:56:12.539Z,1805.62
2019-06-26T09:57:12.503Z,1715.62
2019-06-26T09:58:13.489Z,1558.12
2019-06-26T09:59:12.487Z,1496.25
2019-06-26T10:00:12.483Z,1591.88
2019-06-26T10:01:12.659Z,1687.50
2019-06-26T10:02:12.461Z,1794.38
2019-06-26T10:03:12.451Z,1867.50
2019-06-26T10:04:12.489Z,1957.50
2019-06-26T10:05:12.434Z,2013.75
2019-06-26T10:06:12.438Z,2002.50
2019-06-26T10:07:12.427Z,1963.12
2019-06-26T10:08:12.412Z,1980.00
2019-06-26T10:09:12.400Z,1906.88
2019-06-26T10:10:12.399Z,1816.88
2019-06-26T10:11:12.412Z,1811.25
2019-06-26T10:12:12.374Z,1884.38
2019-06-26T10:13:12.417Z,1839.38
2019-06-26T10:14:12.357Z,1755.00
2019-06-26T10:15:12.348Z,1732.50
2019-06-26T10:16:12.354Z,1912.50
2019-06-26T10:17:12.333Z,2025.00
2019-06-26T10:18:12.326Z,1816.88
2019-06-26T10:19:12.317Z,1873.12
2019-06-26T10:20:12.316Z,1906.88
2019-06-26T10:21:12.301Z,1715.62
2019-06-26T10:22:12.317Z,1811.25
2019-06-26T10:23:12.282Z,2013.75
2019-06-26T10:24:12.276Z,2058.75
2019-06-26T10:25:12.278Z,2081.25
2019-06-26T10:26:12.261Z,2075.62
2019-06-26T10:27:12.259Z,2036.25
2019-06-26T10:28:12.246Z,1929.38
2019-06-26T10:29:12.242Z,1884.38
2019-06-26T10:30:12.225Z,1895.62
2019-06-26T10:31:12.216Z,1906.88
2019-06-26T10:32:12.218Z,1940.62
2019-06-26T10:33:12.200Z,1918.12
2019-06-26T10:34:12.194Z,1985.62
2019-06-26T10:35:12.184Z,1963.12
2019-06-26T10:36:12.177Z,1912.50
2019-06-26T10:37:12.175Z,1861.88
2019-06-26T10:38:12.158Z,1411.88
2019-06-26T10:39:12.262Z,1108.12
2019-06-26T10:40:15.988Z,1164.38
2019-06-26T10:41:12.150Z,1440.00
2019-06-26T10:42:12.142Z,1771.88
2019-06-26T10:43:12.127Z,1963.12
2019-06-26T10:44:12.111Z,1980.00
2019-06-26T10:45:12.252Z,1957.50
2019-06-26T10:46:12.136Z,1963.12
2019-06-26T10:47:12.103Z,1828.12
2019-06-26T10:48:12.088Z,1800.00
2019-06-26T10:49:25.806Z,2002.50
2019-06-26T10:50:13.063Z,2058.75
2019-06-26T10:51:12.053Z,2025.00
2019-06-26T10:52:12.043Z,1816.88
2019-06-26T10:53:12.048Z,888.75
2019-06-26T10:54:12.035Z,354.38
2019-06-26T10:55:12.039Z,326.25
2019-06-26T10:56:12.022Z,326.25
2019-06-26T10:57:12.002Z,326.25
2019-06-26T10:58:12.150Z,354.38
2019-06-26T10:59:11.985Z,810.00
2019-06-26T11:00:11.984Z,1670.62
2019-06-26T11:01:11.969Z,1918.12
2019-06-26T11:02:11.964Z,1833.75
2019-06-26T11:03:11.961Z,1867.50
2019-06-26T11:04:11.947Z,1923.75
2019-06-26T11:05:11.948Z,1895.62
2019-06-26T11:06:11.931Z,1822.50
2019-06-26T11:07:11.931Z,1771.88
2019-06-26T11:08:11.958Z,1558.12
2019-06-26T11:09:11.907Z,832.50
2019-06-26T11:10:11.907Z,624.38
2019-06-26T11:11:11.887Z,1102.50
2019-06-26T11:12:12.039Z,1203.75
2019-06-26T11:13:11.939Z,832.50
2019-06-26T11:14:11.862Z,523.12
2019-06-26T11:15:11.863Z,331.88
2019-06-26T11:16:11.860Z,303.75
2019-06-26T11:17:11.845Z,292.50
2019-06-26T11:18:11.840Z,292.50
2019-06-26T11:19:11.824Z,286.88
2019-06-26T11:20:11.823Z,281.25
2019-06-26T11:21:11.810Z,275.62
2019-06-26T11:22:11.813Z,281.25
2019-06-26T11:23:11.796Z,275.62
2019-06-26T11:24:11.779Z,270.00
2019-06-26T11:25:11.884Z,270.00
2019-06-26T11:26:11.856Z,270.00
2019-06-26T11:27:11.820Z,264.38
2019-06-26T11:28:11.987Z,258.75
2019-06-26T11:29:11.748Z,253.12
2019-06-26T11:30:11.821Z,253.12
2019-06-26T11:31:11.786Z,253.12
2019-06-26T11:32:11.808Z,253.12
2019-06-26T11:33:11.795Z,253.12
2019-06-26T11:34:11.772Z,258.75
2019-06-26T11:35:11.739Z,253.12
2019-06-26T11:36:11.722Z,247.50
2019-06-26T11:37:11.738Z,241.88
2019-06-26T11:38:11.853Z,241.88
2019-06-26T11:39:11.711Z,236.25
2019-06-26T11:40:11.779Z,236.25
2019-06-26T11:41:11.735Z,230.62
2019-06-26T11:42:11.704Z,219.38
2019-06-26T11:43:11.852Z,219.38
2019-06-26T11:44:11.600Z,225.00
2019-06-26T11:45:11.600Z,225.00
2019-06-26T11:46:11.579Z,219.38
2019-06-26T11:47:11.620Z,225.00
2019-06-26T11:48:11.566Z,225.00
2019-06-26T11:49:11.582Z,213.75
2019-06-26T11:50:11.633Z,208.12
2019-06-26T11:51:11.529Z,213.75
2019-06-26T11:52:11.532Z,213.75
2019-06-26T11:53:11.583Z,213.75
2019-06-26T11:54:11.501Z,208.12
2019-06-26T11:55:11.491Z,208.12
2019-06-26T11:56:11.530Z,202.50
2019-06-26T11:57:11.477Z,202.50
2019-06-26T11:58:11.562Z,196.88
2019-06-26T11:59:11.463Z,196.88
2019-06-26T12:00:11.542Z,196.88
2019-06-26T12:01:11.444Z,202.50
2019-06-26T12:02:11.429Z,213.75
2019-06-26T12:03:13.319Z,219.38
2019-06-26T12:04:11.419Z,213.75
2019-06-26T12:05:11.407Z,213.75
2019-06-26T12:06:18.593Z,213.75
2019-06-26T12:07:12.376Z,213.75
2019-06-26T12:08:11.384Z,213.75
2019-06-26T12:09:11.403Z,208.12
2019-06-26T12:10:11.562Z,208.12
2019-06-26T12:11:11.347Z,208.12
2019-06-26T12:12:11.332Z,208.12
2019-06-26T12:13:11.314Z,202.50
2019-06-26T12:14:11.330Z,202.50
2019-06-26T12:15:11.359Z,202.50
2019-06-26T12:16:11.286Z,202.50
2019-06-26T12:17:11.288Z,202.50
2019-06-26T12:18:11.264Z,196.88
2019-06-26T12:19:11.266Z,196.88
2019-06-26T12:20:18.483Z,196.88
2019-06-26T12:21:12.364Z,196.88
2019-06-26T12:22:11.233Z,191.25
2019-06-26T12:23:11.216Z,191.25
2019-06-26T12:24:11.280Z,191.25
2019-06-26T12:25:11.200Z,191.25
2019-06-26T12:26:11.186Z,191.25
2019-06-26T12:27:11.181Z,191.25
2019-06-26T12:28:11.172Z,185.62
2019-06-26T12:29:11.170Z,185.62
2019-06-26T12:30:11.146Z,180.00
2019-06-26T12:31:11.160Z,180.00
2019-06-26T12:32:11.130Z,180.00
2019-06-26T12:33:11.118Z,180.00
2019-06-26T12:34:11.131Z,180.00
2019-06-26T12:35:11.105Z,174.38
2019-06-26T12:36:11.086Z,174.38
2019-06-26T12:37:11.119Z,168.75
2019-06-26T12:38:11.074Z,168.75
2019-06-26T12:39:11.056Z,168.75
2019-06-26T12:40:11.101Z,174.38
2019-06-26T12:41:11.061Z,168.75
2019-06-26T12:42:11.028Z,174.38